Time;durP1;ratioP1;P1;durP2;ratioP2;P2;SDS_P1;SDS_P2;PMS_P1;PMS_P2;Temp;Humidity;BMP_temperature;BMP_pressure;BME280_temperature;BME280_humidity;BME280_pressure;Samples;Min_cycle;Max_cycle;Signal;HPM_P1;HPM_P2
2020/12/05 00:00:10;;;;;;;8.98;4.28;;;5.20;94.50;;;;;;5047290;28;20306;-71
2020/12/05 00:02:39;;;;;;;10.35;4.32;;;5.20;94.50;;;;;;5047531;28;20223;-73
2020/12/05 00:05:06;;;;;;;11.57;4.10;;;5.20;94.50;;;;;;5046419;28;20269;-70
2020/12/05 00:07:32;;;;;;;7.22;3.42;;;5.20;94.50;;;;;;5048807;28;20203;-71
2020/12/05 00:09:58;;;;;;;9.48;4.20;;;5.20;94.50;;;;;;5046434;28;20207;-72
2020/12/05 00:12:24;;;;;;;10.02;4.18;;;5.30;94.50;;;;;;5048398;28;20222;-72
2020/12/05 00:14:51;;;;;;;12.07;4.28;;;5.30;94.40;;;;;;5047385;28;20211;-69
2020/12/05 00:17:18;;;;;;;10.77;4.78;;;5.20;94.30;;;;;;5047191;28;20280;-73
2020/12/05 00:19:45;;;;;;;7.78;3.60;;;5.20;94.30;;;;;;5048363;28;20726;-72
2020/12/05 00:22:11;;;;;;;7.43;4.05;;;5.20;94.40;;;;;;5047283;28;20211;-70
2020/12/05 00:24:37;;;;;;;9.18;3.53;;;5.20;94.40;;;;;;5048206;28;20235;-73
2020/12/05 00:27:03;;;;;;;7.25;3.50;;;5.20;94.40;;;;;;5048776;28;20207;-71
2020/12/05 00:29:30;;;;;;;7.80;4.40;;;5.20;94.40;;;;;;5047631;28;20211;-72
2020/12/05 00:31:56;;;;;;;9.55;3.75;;;5.20;94.40;;;;;;5047663;28;20199;-71
2020/12/05 00:34:23;;;;;;;9.23;3.85;;;5.10;94.40;;;;;;5046599;28;20231;-72
2020/12/05 00:36:52;;;;;;;10.57;3.70;;;5.10;94.50;;;;;;5048954;28;20234;-69
2020/12/05 00:39:19;;;;;;;9.25;3.88;;;5.10;94.60;;;;;;5046843;28;20211;-71
2020/12/05 00:41:45;;;;;;;6.78;3.28;;;5.10;94.60;;;;;;5047280;28;20206;-72
2020/12/05 00:44:11;;;;;;;11.15;3.72;;;5.10;94.60;;;;;;5046873;28;20210;-70
2020/12/05 00:46:40;;;;;;;11.73;3.58;;;5.10;94.70;;;;;;5045185;28;20234;-71
2020/12/05 00:49:07;;;;;;;11.45;4.05;;;5.00;94.70;;;;;;5062571;28;20199;-72
2020/12/05 00:51:34;;;;;;;10.25;3.63;;;5.00;94.80;;;;;;5045463;28;20207;-71
2020/12/05 00:54:01;;;;;;;7.38;3.35;;;5.00;94.80;;;;;;5044253;28;20253;-70
2020/12/05 00:56:27;;;;;;;13.10;3.53;;;4.90;94.80;;;;;;5046284;28;20214;-69
2020/12/05 00:58:54;;;;;;;7.88;3.75;;;4.90;94.90;;;;;;5046826;28;20199;-69
2020/12/05 01:01:20;;;;;;;6.22;3.83;;;4.90;94.90;;;;;;5045647;28;20671;-73
2020/12/05 01:03:46;;;;;;;8.40;3.88;;;4.90;94.90;;;;;;5046261;28;20306;-72
2020/12/05 01:06:13;;;;;;;9.82;4.07;;;4.90;95.10;;;;;;5045634;28;20214;-73
2020/12/05 01:08:41;;;;;;;9.70;3.58;;;4.90;95.00;;;;;;5043217;28;20238;-70
2020/12/05 01:11:15;;;;;;;10.60;3.97;;;4.90;94.90;;;;;;5048355;28;20203;-72
2020/12/05 01:13:41;;;;;;;12.52;3.95;;;4.90;94.90;;;;;;5045175;28;20639;-70
2020/12/05 01:16:10;;;;;;;8.57;3.90;;;4.90;95.00;;;;;;5045726;28;20716;-71
2020/12/05 01:18:37;;;;;;;7.43;4.18;;;4.90;95.00;;;;;;5044953;28;20234;-72
2020/12/05 01:21:03;;;;;;;7.88;3.70;;;4.80;95.00;;;;;;5047110;28;20719;-71
2020/12/05 01:23:30;;;;;;;9.32;3.85;;;4.80;95.00;;;;;;5044224;28;20316;-71
2020/12/05 01:25:57;;;;;;;8.25;4.15;;;4.80;95.00;;;;;;5048745;28;20226;-71
2020/12/05 01:28:23;;;;;;;12.32;3.95;;;4.80;95.10;;;;;;5045918;28;20740;-73
2020/12/05 01:30:49;;;;;;;5.53;3.70;;;4.80;95.20;;;;;;5045440;28;20628;-71
2020/12/05 01:33:16;;;;;;;12.85;3.95;;;4.70;95.30;;;;;;5045817;28;20214;-71
2020/12/05 01:35:42;;;;;;;10.00;4.10;;;4.80;95.40;;;;;;5046268;28;20242;-70
2020/12/05 01:38:08;;;;;;;9.23;4.35;;;4.70;95.40;;;;;;5043797;28;20218;-69
2020/12/05 01:40:34;;;;;;;9.18;4.07;;;4.70;95.50;;;;;;5045484;28;20230;-69
2020/12/05 01:43:02;;;;;;;10.48;4.00;;;4.70;95.50;;;;;;5047324;28;20287;-70
2020/12/05 01:45:28;;;;;;;15.07;4.20;;;4.70;95.60;;;;;;5046109;28;20260;-70
2020/12/05 01:47:54;;;;;;;13.20;4.38;;;4.60;95.60;;;;;;5044812;28;20195;-71
2020/12/05 01:50:21;;;;;;;11.82;4.50;;;4.60;95.70;;;;;;5044179;28;20668;-69
2020/12/05 01:52:49;;;;;;;11.02;4.85;;;4.60;95.70;;;;;;5045047;28;20231;-71
2020/12/05 01:55:15;;;;;;;10.43;5.07;;;4.60;95.80;;;;;;5043982;28;20203;-72
2020/12/05 01:57:42;;;;;;;9.50;4.57;;;4.60;95.80;;;;;;5046050;28;20284;-70
2020/12/05 02:00:09;;;;;;;8.63;4.15;;;4.60;95.80;;;;;;5044858;28;20211;-71
2020/12/05 02:02:37;;;;;;;9.20;4.22;;;4.60;95.80;;;;;;5045286;28;20207;-70
2020/12/05 02:05:07;;;;;;;7.80;4.03;;;4.60;95.80;;;;;;5044244;28;20313;-73
2020/12/05 02:07:43;;;;;;;10.38;4.40;;;4.60;96.00;;;;;;5043250;28;20318;-71
2020/12/05 02:10:13;;;;;;;8.35;4.38;;;4.60;96.10;;;;;;5044335;28;20296;-72
2020/12/05 02:12:49;;;;;;;9.80;4.38;;;4.50;96.10;;;;;;5043559;28;20207;-72
2020/12/05 02:15:22;;;;;;;8.40;4.18;;;4.50;96.20;;;;;;5042944;28;20272;-71
2020/12/05 02:17:57;;;;;;;10.60;4.35;;;4.50;96.20;;;;;;5046934;28;20207;-71
2020/12/05 02:20:24;;;;;;;6.93;4.22;;;4.60;96.30;;;;;;5044730;28;20602;-72
2020/12/05 02:22:52;;;;;;;8.55;4.07;;;4.50;96.30;;;;;;5045184;28;20235;-70
2020/12/05 02:25:20;;;;;;;10.77;4.50;;;4.50;96.30;;;;;;5045107;28;21361;-69
2020/12/05 02:27:46;;;;;;;12.73;5.15;;;4.60;96.30;;;;;;5044525;28;20203;-72
2020/12/05 02:30:13;;;;;;;9.90;4.50;;;4.60;96.30;;;;;;5044732;28;20320;-71
2020/12/05 02:32:39;;;;;;;10.48;4.38;;;4.60;96.30;;;;;;5045217;28;20237;-71
2020/12/05 02:35:06;;;;;;;8.23;4.20;;;4.60;96.30;;;;;;5046463;28;20290;-72
2020/12/05 02:37:38;;;;;;;7.55;4.40;;;4.60;96.40;;;;;;5047862;28;20219;-69
2020/12/05 02:40:05;;;;;;;7.57;4.75;;;4.60;96.40;;;;;;5044557;28;20223;-70
2020/12/05 02:42:35;;;;;;;7.75;4.00;;;4.60;96.40;;;;;;5045621;28;20219;-70
2020/12/05 02:45:01;;;;;;;7.40;4.13;;;4.70;96.50;;;;;;5045456;28;20290;-70
2020/12/05 02:47:28;;;;;;;9.65;4.82;;;4.70;96.40;;;;;;5043961;28;20984;-69
2020/12/05 02:49:57;;;;;;;14.88;4.45;;;4.70;96.40;;;;;;5044366;28;20206;-70
2020/12/05 02:52:24;;;;;;;14.35;4.40;;;4.70;96.50;;;;;;5043328;28;20195;-71
2020/12/05 02:54:50;;;;;;;11.35;4.88;;;4.70;96.50;;;;;;5044930;28;20241;-72
2020/12/05 02:57:16;;;;;;;10.20;4.75;;;4.60;96.50;;;;;;5044023;28;20992;-73
2020/12/05 02:59:43;;;;;;;7.95;4.32;;;4.70;96.50;;;;;;5044760;28;20199;-71
2020/12/05 03:02:10;;;;;;;10.90;4.40;;;4.70;96.50;;;;;;5044653;28;20633;-71
2020/12/05 03:04:36;;;;;;;7.97;4.53;;;4.60;96.50;;;;;;5043569;28;21347;-72
2020/12/05 03:07:05;;;;;;;10.50;4.80;;;4.60;96.60;;;;;;5046366;28;20213;-72
2020/12/05 03:09:32;;;;;;;8.95;4.43;;;4.70;96.60;;;;;;5043136;28;20285;-69
2020/12/05 03:11:58;;;;;;;9.35;4.97;;;4.70;96.60;;;;;;5045502;28;20261;-71
2020/12/05 03:14:24;;;;;;;9.93;5.20;;;4.60;96.70;;;;;;5046032;28;20219;-70
2020/12/05 03:16:51;;;;;;;7.75;4.40;;;4.60;96.70;;;;;;5045531;28;20211;-71
2020/12/05 03:19:18;;;;;;;7.88;4.43;;;4.70;96.80;;;;;;5044105;28;20625;-71
2020/12/05 03:21:44;;;;;;;9.10;4.97;;;4.70;96.80;;;;;;5043072;28;20304;-70
2020/12/05 03:24:10;;;;;;;10.90;4.47;;;4.60;96.90;;;;;;5043976;28;20250;-70
2020/12/05 03:26:36;;;;;;;9.95;4.53;;;4.60;96.90;;;;;;5044157;28;20280;-70
2020/12/05 03:29:03;;;;;;;11.00;4.65;;;4.60;97.00;;;;;;5045873;28;20714;-69
2020/12/05 03:31:41;;;;;;;10.18;4.78;;;4.60;97.00;;;;;;5048440;28;20218;-70
2020/12/05 03:34:09;;;;;;;13.25;5.30;;;4.60;97.00;;;;;;5047789;28;20310;-71
2020/12/05 03:36:35;;;;;;;11.38;4.85;;;4.60;96.90;;;;;;5045763;28;20702;-70
2020/12/05 03:39:01;;;;;;;8.43;4.50;;;4.60;96.90;;;;;;5045993;28;20673;-71
2020/12/05 03:41:28;;;;;;;10.93;4.80;;;4.60;96.90;;;;;;5048697;28;20284;-70
2020/12/05 03:43:54;;;;;;;11.15;4.55;;;4.60;96.90;;;;;;5046124;28;20289;-70
2020/12/05 03:46:20;;;;;;;10.30;4.30;;;4.60;96.90;;;;;;5049068;28;20308;-70
2020/12/05 03:48:46;;;;;;;9.05;4.50;;;4.60;97.00;;;;;;5062454;28;20202;-70
2020/12/05 03:51:14;;;;;;;10.27;4.30;;;4.60;97.00;;;;;;5047982;28;20203;-70
2020/12/05 03:53:40;;;;;;;13.00;4.28;;;4.60;97.00;;;;;;5046065;28;20754;-70
2020/12/05 03:56:06;;;;;;;8.30;4.50;;;4.60;97.00;;;;;;5047933;28;20676;-70
2020/12/05 03:58:32;;;;;;;9.35;4.35;;;4.60;97.00;;;;;;5046991;28;20256;-70
2020/12/05 04:00:59;;;;;;;11.80;4.70;;;4.60;97.10;;;;;;5048090;28;20694;-69
2020/12/05 04:03:25;;;;;;;10.60;4.63;;;4.50;97.10;;;;;;5047154;28;20302;-70
2020/12/05 04:05:51;;;;;;;7.47;4.45;;;4.60;97.10;;;;;;5047585;28;20231;-69
2020/12/05 04:08:18;;;;;;;8.85;4.47;;;4.50;97.10;;;;;;5045558;28;20233;-70
2020/12/05 04:10:45;;;;;;;6.82;3.95;;;4.50;97.10;;;;;;5047817;28;20226;-70
2020/12/05 04:13:12;;;;;;;7.50;4.35;;;4.50;97.20;;;;;;5048459;28;20245;-71
2020/12/05 04:15:38;;;;;;;10.75;4.78;;;4.50;97.30;;;;;;5047664;28;20195;-71
2020/12/05 04:18:04;;;;;;;8.00;4.75;;;4.50;97.30;;;;;;5045733;28;20256;-69
2020/12/05 04:20:30;;;;;;;8.57;4.18;;;4.60;97.30;;;;;;5045891;28;20211;-70
2020/12/05 04:22:57;;;;;;;11.30;4.50;;;4.50;97.20;;;;;;5047326;28;20257;-71
2020/12/05 04:25:24;;;;;;;15.00;4.82;;;4.50;97.30;;;;;;5047071;28;20211;-69
2020/12/05 04:27:51;;;;;;;7.30;4.40;;;4.50;97.40;;;;;;5048087;28;20203;-70
2020/12/05 04:30:17;;;;;;;11.60;4.57;;;4.50;97.40;;;;;;5062424;28;20639;-70
2020/12/05 04:32:44;;;;;;;9.68;4.30;;;4.50;97.40;;;;;;5045818;28;20265;-70
2020/12/05 04:35:10;;;;;;;8.63;4.50;;;4.50;97.50;;;;;;5046893;28;20220;-70
2020/12/05 04:37:37;;;;;;;10.05;4.95;;;4.40;97.50;;;;;;5047775;28;20283;-70
2020/12/05 04:40:05;;;;;;;8.48;4.57;;;4.50;97.60;;;;;;5046218;28;20589;-70
2020/12/05 04:42:32;;;;;;;9.45;4.70;;;4.50;97.50;;;;;;5047554;28;20814;-71
2020/12/05 04:44:58;;;;;;;12.40;5.00;;;4.40;97.90;;;;;;5047365;28;20951;-70
2020/12/05 04:47:25;;;;;;;10.02;5.00;;;4.50;97.60;;;;;;5046792;28;20269;-69
2020/12/05 04:49:55;;;;;;;10.13;4.88;;;4.50;97.60;;;;;;5048286;28;20710;-74
2020/12/05 04:52:23;;;;;;;11.65;5.03;;;4.50;97.50;;;;;;5047578;28;20214;-70
2020/12/05 04:54:53;;;;;;;8.60;4.60;;;4.50;97.50;;;;;;5046175;28;20296;-70
2020/12/05 04:57:22;;;;;;;9.50;4.85;;;4.50;97.60;;;;;;5046440;28;20664;-69
2020/12/05 04:59:51;;;;;;;11.05;4.80;;;4.50;97.60;;;;;;5047543;28;20211;-71
2020/12/05 05:02:20;;;;;;;12.77;4.60;;;4.50;97.50;;;;;;5046815;28;20203;-70
2020/12/05 05:04:49;;;;;;;12.25;4.80;;;4.60;97.50;;;;;;5046646;28;20551;-70
2020/12/05 05:07:16;;;;;;;8.75;4.38;;;4.50;97.40;;;;;;5045608;28;20195;-70
2020/12/05 05:09:52;;;;;;;11.27;4.70;;;4.50;97.40;;;;;;5045867;28;20740;-69
2020/12/05 05:12:30;;;;;;;9.52;4.78;;;4.60;97.40;;;;;;5050468;28;20202;-70
2020/12/05 05:14:57;;;;;;;7.40;4.72;;;4.60;97.30;;;;;;5047311;28;20343;-69
2020/12/05 05:17:24;;;;;;;8.32;5.45;;;4.60;97.30;;;;;;5046903;28;20233;-71
2020/12/05 05:19:50;;;;;;;13.15;5.15;;;4.60;97.20;;;;;;5046334;28;20745;-71
2020/12/05 05:22:21;;;;;;;10.95;5.65;;;4.60;97.20;;;;;;5045748;28;20675;-70
2020/12/05 05:25:02;;;;;;;11.15;5.72;;;4.60;97.20;;;;;;5044699;28;20207;-69
2020/12/05 05:27:28;;;;;;;11.57;5.93;;;4.50;97.20;;;;;;5045982;28;20656;-70
2020/12/05 05:30:05;;;;;;;7.43;4.75;;;4.50;97.60;;;;;;5045460;28;20244;-71
2020/12/05 05:32:32;;;;;;;11.93;5.47;;;4.50;97.30;;;;;;5045486;28;20211;-71
2020/12/05 05:35:12;;;;;;;11.23;5.50;;;4.50;97.30;;;;;;5046035;28;20210;-71
2020/12/05 05:37:39;;;;;;;8.65;4.93;;;4.50;97.30;;;;;;5045819;28;20249;-71
2020/12/05 05:40:06;;;;;;;11.27;5.45;;;4.50;97.30;;;;;;5044337;28;20234;-71
2020/12/05 05:42:35;;;;;;;8.98;5.15;;;4.50;97.30;;;;;;5045714;28;20207;-70
2020/12/05 05:45:19;;;;;;;9.80;4.95;;;4.50;97.40;;;;;;5045211;28;20640;-69
2020/12/05 05:47:47;;;;;;;10.65;4.97;;;4.50;97.40;;;;;;5044372;28;20214;-71
2020/12/05 05:50:24;;;;;;;11.40;5.07;;;4.50;97.40;;;;;;5045750;28;20199;-70
2020/12/05 05:52:55;;;;;;;8.95;4.63;;;4.50;97.70;;;;;;5045660;28;20203;-70
2020/12/05 05:55:22;;;;;;;14.10;4.88;;;4.50;97.40;;;;;;5045080;28;20207;-70
2020/12/05 05:57:48;;;;;;;10.88;5.38;;;4.40;97.40;;;;;;5045200;28;20286;-71
2020/12/05 06:00:15;;;;;;;7.57;4.90;;;4.40;97.50;;;;;;5045844;28;20214;-70
2020/12/05 06:02:49;;;;;;;7.70;4.85;;;4.40;97.60;;;;;;5046083;28;20214;-70
2020/12/05 06:05:24;;;;;;;10.23;5.05;;;4.40;97.70;;;;;;5044132;28;20238;-71
2020/12/05 06:07:50;;;;;;;12.10;4.90;;;4.40;97.70;;;;;;5043910;28;20264;-71
2020/12/05 06:10:17;;;;;;;10.65;4.90;;;4.40;97.80;;;;;;5043552;28;20233;-71
2020/12/05 06:12:44;;;;;;;11.25;5.22;;;4.40;97.80;;;;;;5048431;28;20289;-71
2020/12/05 06:15:11;;;;;;;8.73;4.95;;;4.40;97.70;;;;;;5043743;28;20849;-72
2020/12/05 06:17:38;;;;;;;9.48;5.55;;;4.40;97.70;;;;;;5048078;28;20202;-71
2020/12/05 06:20:04;;;;;;;8.98;5.13;;;4.50;97.70;;;;;;5044513;28;20281;-69
2020/12/05 06:22:43;;;;;;;8.80;4.82;;;4.50;97.70;;;;;;5047301;28;20285;-69
2020/12/05 06:25:11;;;;;;;8.38;5.03;;;4.50;97.70;;;;;;5044054;28;20199;-70
2020/12/05 06:27:41;;;;;;;14.55;5.80;;;4.50;97.60;;;;;;5045258;28;20258;-71
2020/12/05 06:30:08;;;;;;;8.82;5.20;;;4.50;97.60;;;;;;5043531;28;20207;-73
2020/12/05 06:32:39;;;;;;;8.30;5.38;;;4.40;97.60;;;;;;5044997;28;20272;-72
2020/12/05 06:35:28;;;;;;;9.27;5.32;;;4.40;97.70;;;;;;5046095;28;20257;-71
2020/12/05 06:37:56;;;;;;;8.77;5.50;;;4.40;97.80;;;;;;5048473;28;20203;-70
2020/12/05 06:40:24;;;;;;;17.23;5.75;;;4.40;97.90;;;;;;5044565;28;20825;-71
2020/12/05 06:42:51;;;;;;;13.38;5.88;;;4.40;98.00;;;;;;5046908;28;20230;-72
2020/12/05 06:45:39;;;;;;;14.00;6.35;;;4.50;98.00;;;;;;5045739;28;20201;-69
2020/12/05 06:48:36;;;;;;;10.00;5.10;;;4.50;98.00;;;;;;5045374;28;20206;-70
2020/12/05 06:51:02;;;;;;;12.77;4.97;;;4.50;98.00;;;;;;4983015;28;20209;-72
2020/12/05 06:53:31;;;;;;;18.70;5.63;;;4.50;98.00;;;;;;5031037;28;20758;-71
2020/12/05 06:55:57;;;;;;;10.32;5.28;;;4.60;98.10;;;;;;5046149;28;20286;-71
2020/12/05 06:58:25;;;;;;;8.15;5.00;;;4.60;98.10;;;;;;5046128;28;20265;-74
2020/12/05 07:00:52;;;;;;;9.95;5.13;;;4.60;98.10;;;;;;5049393;28;20191;-71
2020/12/05 07:03:25;;;;;;;11.00;5.57;;;4.70;98.10;;;;;;5049242;28;20676;-69
2020/12/05 07:05:51;;;;;;;11.23;5.40;;;4.70;98.10;;;;;;5050106;28;20220;-70
2020/12/05 07:08:26;;;;;;;9.02;5.28;;;4.70;98.50;;;;;;5047114;28;20199;-73
2020/12/05 07:10:56;;;;;;;9.45;5.15;;;4.70;98.20;;;;;;5049764;28;20280;-69
2020/12/05 07:13:25;;;;;;;9.00;5.20;;;4.70;98.30;;;;;;5049348;28;20207;-70
2020/12/05 07:16:07;;;;;;;11.90;5.65;;;4.70;98.40;;;;;;5046859;28;20211;-72
2020/12/05 07:18:33;;;;;;;12.00;5.50;;;4.70;98.40;;;;;;5048604;28;20276;-71
2020/12/05 07:21:00;;;;;;;9.10;5.53;;;4.80;98.70;;;;;;5049337;28;20289;-68
2020/12/05 07:23:26;;;;;;;13.07;5.70;;;4.80;98.20;;;;;;5055037;28;20245;-71
2020/12/05 07:25:53;;;;;;;7.78;5.35;;;4.80;98.20;;;;;;5050701;28;20269;-69
2020/12/05 07:28:20;;;;;;;9.35;5.22;;;4.80;98.10;;;;;;5053616;28;20207;-69
2020/12/05 07:30:46;;;;;;;8.70;5.05;;;4.80;98.10;;;;;;5048808;28;20211;-70
2020/12/05 07:33:13;;;;;;;9.25;4.82;;;4.80;98.00;;;;;;5049684;28;20806;-70
2020/12/05 07:35:39;;;;;;;9.52;5.30;;;4.80;98.00;;;;;;5063283;28;20268;-70
2020/12/05 07:38:13;;;;;;;13.20;5.53;;;4.80;98.00;;;;;;5049416;28;20231;-71
2020/12/05 07:40:39;;;;;;;12.23;5.50;;;4.80;98.00;;;;;;5047973;28;20231;-70
2020/12/05 07:43:16;;;;;;;9.73;5.25;;;4.90;98.00;;;;;;5052244;28;20265;-69
2020/12/05 07:45:43;;;;;;;9.43;4.90;;;4.90;98.00;;;;;;5048417;28;20206;-70
2020/12/05 07:48:14;;;;;;;9.82;5.25;;;4.90;98.00;;;;;;5048497;28;20212;-70
2020/12/05 07:50:41;;;;;;;8.50;5.03;;;4.90;97.90;;;;;;5051771;28;20230;-73
2020/12/05 07:53:29;;;;;;;10.35;5.15;;;5.00;97.90;;;;;;5049242;28;20237;-69
2020/12/05 07:55:56;;;;;;;9.95;5.13;;;5.00;97.80;;;;;;5053318;28;20252;-70
2020/12/05 07:58:23;;;;;;;8.50;5.53;;;5.00;97.80;;;;;;5052132;28;20205;-71
2020/12/05 08:00:53;;;;;;;13.23;5.70;;;5.00;97.70;;;;;;5047958;28;20274;-70
2020/12/05 08:03:42;;;;;;;12.52;6.07;;;5.10;97.80;;;;;;5048050;28;20314;-70
2020/12/05 08:06:17;;;;;;;9.18;5.70;;;5.10;97.80;;;;;;5048677;28;20199;-68
2020/12/05 08:08:47;;;;;;;10.23;5.90;;;5.10;97.80;;;;;;5048042;28;20284;-73
2020/12/05 08:11:16;;;;;;;8.35;5.35;;;5.10;97.80;;;;;;5047630;28;20251;-70
2020/12/05 08:13:47;;;;;;;8.90;5.85;;;5.20;97.80;;;;;;5051015;28;20303;-70
2020/12/05 08:16:16;;;;;;;9.82;5.68;;;5.20;97.70;;;;;;5048335;28;20206;-71
2020/12/05 08:18:44;;;;;;;11.52;5.50;;;5.20;97.70;;;;;;5047680;28;20762;-69
2020/12/05 08:21:10;;;;;;;13.05;6.07;;;5.20;97.70;;;;;;5049172;28;20208;-70
2020/12/05 08:23:37;;;;;;;10.00;6.05;;;5.30;97.70;;;;;;5047694;28;20211;-72
2020/12/05 08:26:07;;;;;;;9.63;5.72;;;5.30;97.60;;;;;;5051973;28;20675;-71
2020/12/05 08:28:38;;;;;;;10.75;6.32;;;5.30;97.50;;;;;;5047421;28;20211;-70
2020/12/05 08:31:08;;;;;;;19.70;5.68;;;5.30;97.50;;;;;;5047163;28;20215;-70
2020/12/05 08:33:44;;;;;;;10.90;6.40;;;5.40;97.50;;;;;;5047847;28;20726;-76
2020/12/05 08:36:18;;;;;;;9.43;6.10;;;5.40;97.40;;;;;;5047229;28;20538;-73
2020/12/05 08:38:46;;;;;;;12.65;6.50;;;5.40;97.40;;;;;;5051538;28;20731;-73
2020/12/05 08:41:12;;;;;;;12.50;6.53;;;5.40;97.40;;;;;;5049010;28;20235;-71
2020/12/05 08:43:38;;;;;;;9.98;6.32;;;5.40;97.30;;;;;;5045826;28;20227;-69
2020/12/05 08:46:17;;;;;;;10.55;6.50;;;5.50;97.70;;;;;;5045870;28;20630;-69
2020/12/05 08:48:43;;;;;;;10.15;6.15;;;5.50;97.30;;;;;;5047318;28;20211;-70
2020/12/05 08:51:09;;;;;;;10.30;6.18;;;5.50;97.30;;;;;;5063872;28;20239;-70
2020/12/05 08:53:36;;;;;;;13.50;6.90;;;5.60;97.30;;;;;;5047164;28;20260;-72
2020/12/05 08:56:03;;;;;;;12.50;6.80;;;5.60;97.30;;;;;;5048548;28;20222;-73
2020/12/05 08:58:42;;;;;;;13.05;7.20;;;5.70;97.30;;;;;;5046582;28;20211;-71
2020/12/05 09:01:09;;;;;;;13.30;7.35;;;5.70;97.30;;;;;;5045969;28;20291;-70
2020/12/05 09:03:38;;;;;;;11.50;7.25;;;5.70;97.20;;;;;;5047219;28;20208;-71
2020/12/05 09:06:05;;;;;;;14.60;7.35;;;5.70;97.20;;;;;;5051995;28;20223;-72
2020/12/05 09:08:32;;;;;;;11.82;7.03;;;5.80;97.10;;;;;;5046005;28;20242;-69
2020/12/05 09:10:59;;;;;;;13.20;7.80;;;5.80;97.10;;;;;;5045511;28;20279;-72
2020/12/05 09:13:25;;;;;;;15.00;7.80;;;5.80;97.10;;;;;;5050361;28;20620;-71
2020/12/05 09:15:57;;;;;;;15.40;7.90;;;5.80;97.00;;;;;;5047682;28;20206;-73
2020/12/05 09:18:23;;;;;;;12.10;8.30;;;5.80;97.00;;;;;;5045313;28;20260;-74
2020/12/05 09:20:50;;;;;;;14.60;8.50;;;5.80;97.00;;;;;;5047134;28;20286;-70
2020/12/05 09:23:27;;;;;;;15.63;7.72;;;5.80;97.00;;;;;;5046766;28;20751;-71
2020/12/05 09:26:00;;;;;;;13.20;8.15;;;5.90;97.00;;;;;;5051088;28;20281;-69
2020/12/05 09:28:27;;;;;;;14.38;8.18;;;5.90;97.00;;;;;;5049198;28;20203;-69
2020/12/05 09:30:53;;;;;;;14.13;8.50;;;5.90;97.00;;;;;;5047737;28;20253;-69
2020/12/05 09:33:19;;;;;;;12.43;8.43;;;5.90;97.00;;;;;;5057669;28;20813;-70
2020/12/05 09:35:47;;;;;;;13.93;9.05;;;6.00;97.00;;;;;;5045950;28;20201;-73
2020/12/05 09:38:14;;;;;;;15.38;8.63;;;6.00;97.00;;;;;;5047476;28;20206;-71
2020/12/05 09:40:40;;;;;;;13.63;8.10;;;6.00;97.00;;;;;;5048601;28;20615;-71
2020/12/05 09:43:07;;;;;;;13.15;8.13;;;6.10;97.10;;;;;;5046680;28;20306;-71
2020/12/05 09:45:33;;;;;;;15.27;8.15;;;6.20;97.10;;;;;;5054380;28;20231;-74
2020/12/05 09:48:00;;;;;;;14.70;7.72;;;6.20;97.10;;;;;;5051145;28;20213;-70
2020/12/05 09:50:26;;;;;;;12.50;8.85;;;6.30;97.10;;;;;;5046959;28;20256;-70
2020/12/05 09:52:52;;;;;;;14.20;8.60;;;6.30;97.10;;;;;;5057965;28;20210;-71
2020/12/05 09:55:19;;;;;;;17.42;8.15;;;6.40;97.20;;;;;;5048045;28;20669;-71
2020/12/05 09:57:46;;;;;;;12.85;8.57;;;6.50;97.40;;;;;;5052292;28;20198;-70
2020/12/05 10:00:13;;;;;;;12.30;7.82;;;6.60;97.50;;;;;;5045779;28;20238;-69
2020/12/05 10:02:41;;;;;;;14.20;7.68;;;6.80;97.50;;;;;;5046590;28;20203;-68
2020/12/05 10:05:09;;;;;;;13.90;7.88;;;6.90;97.30;;;;;;5046806;28;20272;-73
2020/12/05 10:07:36;;;;;;;12.73;7.90;;;6.90;97.00;;;;;;5051303;28;20265;-72
2020/12/05 10:10:03;;;;;;;11.38;7.63;;;7.00;97.10;;;;;;5044358;28;20218;-69
2020/12/05 10:12:31;;;;;;;14.43;7.85;;;7.10;97.30;;;;;;5047413;28;20269;-68
2020/12/05 10:14:58;;;;;;;11.35;8.40;;;7.50;97.40;;;;;;5044173;28;20250;-71
2020/12/05 10:17:24;;;;;;;11.07;8.27;;;7.90;97.40;;;;;;5058660;28;20314;-72
2020/12/05 10:19:51;;;;;;;14.18;7.80;;;8.30;97.30;;;;;;5048139;28;20717;-72
2020/12/05 10:22:17;;;;;;;11.65;7.68;;;8.70;97.00;;;;;;5047599;28;20214;-69
2020/12/05 10:24:43;;;;;;;10.20;7.75;;;9.10;96.60;;;;;;5042475;28;20211;-72
2020/12/05 10:27:10;;;;;;;12.68;6.88;;;9.50;96.50;;;;;;5045766;28;20211;-69
2020/12/05 10:29:37;;;;;;;11.10;6.78;;;10.10;96.40;;;;;;5050508;28;20203;-69
2020/12/05 10:32:03;;;;;;;9.80;6.68;;;10.80;95.60;;;;;;5044107;28;20231;-71
2020/12/05 10:34:29;;;;;;;10.43;6.70;;;11.40;94.00;;;;;;5044031;28;20237;-70
2020/12/05 10:36:56;;;;;;;9.90;6.32;;;11.90;92.60;;;;;;5050067;28;20208;-72
2020/12/05 10:39:22;;;;;;;10.23;7.18;;;12.40;91.60;;;;;;5044294;28;20227;-71
2020/12/05 10:41:49;;;;;;;9.55;6.28;;;12.80;90.60;;;;;;5048855;28;20262;-70
2020/12/05 10:44:16;;;;;;;11.60;6.60;;;13.10;89.30;;;;;;5043648;28;20296;-72
2020/12/05 10:46:44;;;;;;;11.25;6.00;;;13.30;87.40;;;;;;5048437;28;20202;-71
2020/12/05 10:49:12;;;;;;;8.80;6.20;;;13.50;85.90;;;;;;5044377;28;20576;-72
2020/12/05 10:51:38;;;;;;;12.05;5.82;;;13.90;84.50;;;;;;5044670;28;20238;-72
2020/12/05 10:54:05;;;;;;;10.93;5.43;;;14.20;82.10;;;;;;5044025;28;20203;-69
2020/12/05 10:56:32;;;;;;;8.95;5.30;;;14.50;80.40;;;;;;5045379;28;20203;-71
2020/12/05 10:58:58;;;;;;;8.30;5.60;;;14.80;78.60;;;;;;5045725;28;20249;-72
2020/12/05 11:01:24;;;;;;;9.02;5.13;;;15.10;76.90;;;;;;5043596;28;20673;-70
2020/12/05 11:03:51;;;;;;;6.40;4.60;;;15.20;75.20;;;;;;5047971;28;20259;-70
2020/12/05 11:06:21;;;;;;;9.13;4.90;;;15.20;73.80;;;;;;5050709;28;20255;-72
2020/12/05 11:08:48;;;;;;;15.98;5.13;;;15.20;72.20;;;;;;5044930;28;20285;-73
2020/12/05 11:11:14;;;;;;;14.68;5.20;;;15.20;70.60;;;;;;5044874;28;20612;-72
2020/12/05 11:13:41;;;;;;;11.40;4.80;;;15.10;69.60;;;;;;5044297;28;20585;-71
2020/12/05 11:16:07;;;;;;;10.80;5.38;;;15.10;69.00;;;;;;5047034;28;20214;-71
2020/12/05 11:18:34;;;;;;;7.25;5.05;;;15.10;69.10;;;;;;5045003;28;20681;-72
2020/12/05 11:21:01;;;;;;;10.57;5.28;;;14.90;68.30;;;;;;5044482;28;20203;-72
2020/12/05 11:23:27;;;;;;;8.13;5.05;;;14.60;68.20;;;;;;5043884;28;20241;-71
2020/12/05 11:25:54;;;;;;;7.07;4.95;;;14.60;68.20;;;;;;5042857;28;20234;-71
2020/12/05 11:28:20;;;;;;;7.88;5.10;;;14.60;68.10;;;;;;5043819;28;20203;-71
2020/12/05 11:30:46;;;;;;;8.93;5.15;;;14.80;68.50;;;;;;5042945;28;20211;-73
2020/12/05 11:33:13;;;;;;;7.13;5.28;;;15.00;68.20;;;;;;5045542;28;20663;-72
2020/12/05 11:35:39;;;;;;;12.15;8.85;;;15.00;67.80;;;;;;5043792;28;20680;-73
2020/12/05 11:38:06;;;;;;;10.68;5.82;;;15.10;67.70;;;;;;5049465;28;20244;-72
2020/12/05 11:40:32;;;;;;;7.53;5.15;;;15.30;67.30;;;;;;5045654;28;20203;-72
2020/12/05 11:42:59;;;;;;;12.48;8.75;;;15.40;66.50;;;;;;5047557;28;20280;-72
2020/12/05 11:45:25;;;;;;;7.63;5.45;;;15.30;65.70;;;;;;5046178;28;20637;-72
2020/12/05 11:47:51;;;;;;;14.63;7.00;;;14.90;65.00;;;;;;5043526;28;20826;-72
2020/12/05 11:50:17;;;;;;;21.40;13.75;;;14.20;64.90;;;;;;5046292;28;20639;-70
2020/12/05 11:52:44;;;;;;;8.70;6.18;;;13.60;65.80;;;;;;5048245;28;20808;-71
2020/12/05 11:55:11;;;;;;;14.85;7.22;;;13.10;67.00;;;;;;5049049;28;20199;-71
2020/12/05 11:57:38;;;;;;;10.70;8.60;;;12.60;67.90;;;;;;5048667;28;20253;-72
2020/12/05 12:00:05;;;;;;;21.90;12.73;;;12.10;69.10;;;;;;5051278;28;20664;-71
2020/12/05 12:02:38;;;;;;;12.27;7.85;;;11.80;70.20;;;;;;5048363;28;20327;-71
2020/12/05 12:05:05;;;;;;;13.93;9.98;;;11.70;71.50;;;;;;5046850;28;20241;-71
2020/12/05 12:07:32;;;;;;;14.68;9.38;;;11.90;72.70;;;;;;5048827;28;20204;-71
2020/12/05 12:09:59;;;;;;;10.93;7.72;;;12.10;72.90;;;;;;5046749;28;20219;-71
2020/12/05 12:12:26;;;;;;;16.65;12.55;;;12.30;72.60;;;;;;5053989;28;20234;-72
2020/12/05 12:14:52;;;;;;;13.02;9.18;;;12.40;72.90;;;;;;5048864;28;20227;-71
2020/12/05 12:17:18;;;;;;;16.90;11.18;;;12.70;73.10;;;;;;5048377;28;20714;-72
2020/12/05 12:19:45;;;;;;;9.18;6.35;;;12.90;72.60;;;;;;5046127;28;20735;-72
2020/12/05 12:22:11;;;;;;;24.48;16.23;;;13.10;72.10;;;;;;5048001;28;20232;-72
2020/12/05 12:24:37;;;;;;;27.67;15.35;;;13.00;71.40;;;;;;5047360;28;20306;-72
2020/12/05 12:27:03;;;;;;;27.55;15.48;;;12.80;70.90;;;;;;5047554;28;20703;-72
2020/12/05 12:29:31;;;;;;;19.27;13.65;;;12.60;71.10;;;;;;5047247;28;20231;-71
2020/12/05 12:31:57;;;;;;;12.23;7.28;;;12.40;71.30;;;;;;5047447;28;20226;-72
2020/12/05 12:34:23;;;;;;;12.63;8.00;;;12.20;71.50;;;;;;5047565;28;20231;-72
2020/12/05 12:36:51;;;;;;;13.05;8.35;;;11.90;71.80;;;;;;5048185;28;20222;-73
2020/12/05 12:39:17;;;;;;;12.73;7.93;;;11.70;72.60;;;;;;5046934;28;20215;-70
2020/12/05 12:41:43;;;;;;;13.13;7.25;;;11.70;73.50;;;;;;5048339;28;20243;-72
2020/12/05 12:44:10;;;;;;;13.52;6.95;;;11.50;73.50;;;;;;5046088;28;20626;-71
2020/12/05 12:46:46;;;;;;;17.77;10.82;;;11.20;74.40;;;;;;5048142;28;20238;-72
2020/12/05 12:49:12;;;;;;;19.30;12.02;;;11.00;74.40;;;;;;5047965;28;20286;-73
2020/12/05 12:51:38;;;;;;;12.18;8.38;;;10.80;75.30;;;;;;5047608;28;20218;-71